sensor_id;sensor_type;location;lat;lon;timestamp;temperature;humidity
33139;DHT22;19501;50.948;5.316;2023-05-07T00:00:23;15.70;99.90
33139;DHT22;19501;50.948;5.316;2023-05-07T00:02:48;15.50;99.90
33139;DHT22;19501;50.948;5.316;2023-05-07T00:05:14;15.60;99.90
33139;DHT22;19501;50.948;5.316;2023-05-07T00:07:40;15.60;99.90
33139;DHT22;19501;50.948;5.316;2023-05-07T00:10:06;15.60;99.90
33139;DHT22;19501;50.948;5.316;2023-05-07T00:12:32;15.80;99.90
33139;DHT22;19501;50.948;5.316;2023-05-07T00:15:00;15.80;99.90
33139;DHT22;19501;50.948;5.316;2023-05-07T00:17:26;16.00;99.90
33139;DHT22;19501;50.948;5.316;2023-05-07T00:19:51;16.10;99.90
33139;DHT22;19501;50.948;5.316;2023-05-07T00:22:17;16.20;99.90
33139;DHT22;19501;50.948;5.316;2023-05-07T00:24:43;16.20;99.90
33139;DHT22;19501;50.948;5.316;2023-05-07T00:27:08;16.30;99.90
33139;DHT22;19501;50.948;5.316;2023-05-07T00:29:37;16.40;99.90
33139;DHT22;19501;50.948;5.316;2023-05-07T00:32:02;16.30;99.90
33139;DHT22;19501;50.948;5.316;2023-05-07T00:34:28;16.20;99.90
33139;DHT22;19501;50.948;5.316;2023-05-07T00:36:56;16.10;99.90
33139;DHT22;19501;50.948;5.316;2023-05-07T00:39:22;16.30;99.90
33139;DHT22;19501;50.948;5.316;2023-05-07T00:41:47;16.40;99.90
33139;DHT22;19501;50.948;5.316;2023-05-07T00:44:13;16.40;99.90
33139;DHT22;19501;50.948;5.316;2023-05-07T00:46:40;16.30;99.90
33139;DHT22;19501;50.948;5.316;2023-05-07T00:49:06;16.30;99.90
33139;DHT22;19501;50.948;5.316;2023-05-07T00:51:32;16.20;99.90
33139;DHT22;19501;50.948;5.316;2023-05-07T00:53:59;16.20;99.90
33139;DHT22;19501;50.948;5.316;2023-05-07T00:56:25;16.30;99.90
33139;DHT22;19501;50.948;5.316;2023-05-07T00:58:51;16.30;99.90
33139;DHT22;19501;50.948;5.316;2023-05-07T01:01:16;16.20;99.90
33139;DHT22;19501;50.948;5.316;2023-05-07T01:03:42;16.30;99.90
33139;DHT22;19501;50.948;5.316;2023-05-07T01:06:09;16.40;99.90
33139;DHT22;19501;50.948;5.316;2023-05-07T01:08:38;16.40;99.90
33139;DHT22;19501;50.948;5.316;2023-05-07T01:11:06;16.40;99.90
33139;DHT22;19501;50.948;5.316;2023-05-07T01:13:32;16.40;99.90
33139;DHT22;19501;50.948;5.316;2023-05-07T01:15:58;16.30;99.90
33139;DHT22;19501;50.948;5.316;2023-05-07T01:18:24;16.20;99.90
33139;DHT22;19501;50.948;5.316;2023-05-07T01:20:52;15.90;99.90
33139;DHT22;19501;50.948;5.316;2023-05-07T01:23:18;15.90;99.90
33139;DHT22;19501;50.948;5.316;2023-05-07T01:25:53;15.90;99.90
33139;DHT22;19501;50.948;5.316;2023-05-07T01:28:19;15.90;99.90
33139;DHT22;19501;50.948;5.316;2023-05-07T01:30:52;15.90;99.90
33139;DHT22;19501;50.948;5.316;2023-05-07T01:33:21;16.00;99.90
33139;DHT22;19501;50.948;5.316;2023-05-07T01:35:51;16.10;99.90
33139;DHT22;19501;50.948;5.316;2023-05-07T01:38:19;16.10;99.90
33139;DHT22;19501;50.948;5.316;2023-05-07T01:40:46;16.20;99.90
33139;DHT22;19501;50.948;5.316;2023-05-07T01:43:12;16.10;99.90
33139;DHT22;19501;50.948;5.316;2023-05-07T01:45:38;16.20;99.90
33139;DHT22;19501;50.948;5.316;2023-05-07T01:48:05;16.20;99.90
33139;DHT22;19501;50.948;5.316;2023-05-07T01:50:32;16.20;99.90
33139;DHT22;19501;50.948;5.316;2023-05-07T01:52:59;16.20;99.90
33139;DHT22;19501;50.948;5.316;2023-05-07T01:55:27;16.20;99.90
33139;DHT22;19501;50.948;5.316;2023-05-07T01:57:53;16.10;99.90
33139;DHT22;19501;50.948;5.316;2023-05-07T02:00:23;16.10;99.90
33139;DHT22;19501;50.948;5.316;2023-05-07T02:02:49;16.10;99.90
33139;DHT22;19501;50.948;5.316;2023-05-07T02:05:14;16.10;99.90
33139;DHT22;19501;50.948;5.316;2023-05-07T02:07:40;16.10;99.90
33139;DHT22;19501;50.948;5.316;2023-05-07T02:10:06;16.10;99.90
33139;DHT22;19501;50.948;5.316;2023-05-07T02:12:32;16.10;99.90
33139;DHT22;19501;50.948;5.316;2023-05-07T02:14:57;16.10;99.90
33139;DHT22;19501;50.948;5.316;2023-05-07T02:17:23;16.10;99.90
33139;DHT22;19501;50.948;5.316;2023-05-07T02:19:49;16.10;99.90
33139;DHT22;19501;50.948;5.316;2023-05-07T02:22:14;16.20;99.90
33139;DHT22;19501;50.948;5.316;2023-05-07T02:24:40;16.20;99.90
33139;DHT22;19501;50.948;5.316;2023-05-07T02:27:06;16.20;99.90
33139;DHT22;19501;50.948;5.316;2023-05-07T02:29:32;16.10;99.90
33139;DHT22;19501;50.948;5.316;2023-05-07T02:31:57;16.10;99.90
33139;DHT22;19501;50.948;5.316;2023-05-07T02:34:23;16.10;99.90
33139;DHT22;19501;50.948;5.316;2023-05-07T02:36:49;16.20;99.90
33139;DHT22;19501;50.948;5.316;2023-05-07T02:39:14;16.00;99.90
33139;DHT22;19501;50.948;5.316;2023-05-07T02:41:41;16.00;99.90
33139;DHT22;19501;50.948;5.316;2023-05-07T02:44:06;16.00;99.90
33139;DHT22;19501;50.948;5.316;2023-05-07T02:46:32;16.00;99.90
33139;DHT22;19501;50.948;5.316;2023-05-07T02:48:57;16.10;99.90
33139;DHT22;19501;50.948;5.316;2023-05-07T02:51:23;16.20;99.90
33139;DHT22;19501;50.948;5.316;2023-05-07T02:53:51;16.10;99.90
33139;DHT22;19501;50.948;5.316;2023-05-07T02:56:16;16.10;99.90
33139;DHT22;19501;50.948;5.316;2023-05-07T02:58:42;16.00;99.90
33139;DHT22;19501;50.948;5.316;2023-05-07T03:01:08;16.00;99.90
33139;DHT22;19501;50.948;5.316;2023-05-07T03:03:34;15.80;99.90
33139;DHT22;19501;50.948;5.316;2023-05-07T03:06:00;15.70;99.90
33139;DHT22;19501;50.948;5.316;2023-05-07T03:08:26;15.70;99.90
33139;DHT22;19501;50.948;5.316;2023-05-07T03:10:52;15.60;99.90
33139;DHT22;19501;50.948;5.316;2023-05-07T03:13:20;15.70;99.90
33139;DHT22;19501;50.948;5.316;2023-05-07T03:15:46;15.80;99.90
33139;DHT22;19501;50.948;5.316;2023-05-07T03:18:12;15.90;99.90
33139;DHT22;19501;50.948;5.316;2023-05-07T03:20:37;15.90;99.90
33139;DHT22;19501;50.948;5.316;2023-05-07T03:23:03;15.90;99.90
33139;DHT22;19501;50.948;5.316;2023-05-07T03:25:29;16.00;99.90
33139;DHT22;19501;50.948;5.316;2023-05-07T03:27:59;16.00;99.90
33139;DHT22;19501;50.948;5.316;2023-05-07T03:30:25;15.90;99.90
33139;DHT22;19501;50.948;5.316;2023-05-07T03:32:53;15.90;99.90
33139;DHT22;19501;50.948;5.316;2023-05-07T03:35:19;15.90;99.90
33139;DHT22;19501;50.948;5.316;2023-05-07T03:37:45;15.90;99.90
33139;DHT22;19501;50.948;5.316;2023-05-07T03:40:11;15.90;99.90
33139;DHT22;19501;50.948;5.316;2023-05-07T03:42:37;16.00;99.90
33139;DHT22;19501;50.948;5.316;2023-05-07T03:45:03;16.00;99.90
33139;DHT22;19501;50.948;5.316;2023-05-07T03:47:29;16.00;99.90
33139;DHT22;19501;50.948;5.316;2023-05-07T03:49:55;15.90;99.90
33139;DHT22;19501;50.948;5.316;2023-05-07T03:52:21;15.90;99.90
33139;DHT22;19501;50.948;5.316;2023-05-07T03:54:51;15.90;99.90
33139;DHT22;19501;50.948;5.316;2023-05-07T03:57:17;16.00;99.90
33139;DHT22;19501;50.948;5.316;2023-05-07T03:59:43;16.00;99.90
33139;DHT22;19501;50.948;5.316;2023-05-07T04:02:08;16.00;99.90
33139;DHT22;19501;50.948;5.316;2023-05-07T04:04:34;16.20;99.90
33139;DHT22;19501;50.948;5.316;2023-05-07T04:07:00;16.20;99.90
33139;DHT22;19501;50.948;5.316;2023-05-07T04:09:28;16.30;99.90
33139;DHT22;19501;50.948;5.316;2023-05-07T04:11:53;16.00;99.90
33139;DHT22;19501;50.948;5.316;2023-05-07T04:14:19;15.90;99.90
33139;DHT22;19501;50.948;5.316;2023-05-07T04:16:45;15.70;99.90
33139;DHT22;19501;50.948;5.316;2023-05-07T04:19:10;15.80;99.90
33139;DHT22;19501;50.948;5.316;2023-05-07T04:21:36;15.80;99.90
33139;DHT22;19501;50.948;5.316;2023-05-07T04:24:03;16.00;99.90
33139;DHT22;19501;50.948;5.316;2023-05-07T04:26:29;16.10;99.90
33139;DHT22;19501;50.948;5.316;2023-05-07T04:28:54;16.10;99.90
33139;DHT22;19501;50.948;5.316;2023-05-07T04:31:20;16.10;99.90
33139;DHT22;19501;50.948;5.316;2023-05-07T04:33:46;16.10;99.90
33139;DHT22;19501;50.948;5.316;2023-05-07T04:36:12;16.10;99.90
33139;DHT22;19501;50.948;5.316;2023-05-07T04:38:37;16.20;99.90
33139;DHT22;19501;50.948;5.316;2023-05-07T04:41:04;16.20;99.90
33139;DHT22;19501;50.948;5.316;2023-05-07T04:43:31;16.10;99.90
33139;DHT22;19501;50.948;5.316;2023-05-07T04:45:56;16.10;99.90
33139;DHT22;19501;50.948;5.316;2023-05-07T04:48:22;16.00;99.90
33139;DHT22;19501;50.948;5.316;2023-05-07T04:50:49;16.10;99.90
33139;DHT22;19501;50.948;5.316;2023-05-07T04:53:14;16.20;99.90
33139;DHT22;19501;50.948;5.316;2023-05-07T04:55:40;16.20;99.90
33139;DHT22;19501;50.948;5.316;2023-05-07T04:58:06;16.20;99.90
33139;DHT22;19501;50.948;5.316;2023-05-07T05:00:31;16.10;99.90
33139;DHT22;19501;50.948;5.316;2023-05-07T05:02:57;16.10;99.90
33139;DHT22;19501;50.948;5.316;2023-05-07T05:05:23;16.20;99.90
33139;DHT22;19501;50.948;5.316;2023-05-07T05:07:48;16.30;99.90
33139;DHT22;19501;50.948;5.316;2023-05-07T05:10:14;16.30;99.90
33139;DHT22;19501;50.948;5.316;2023-05-07T05:12:39;16.50;99.90
33139;DHT22;19501;50.948;5.316;2023-05-07T05:15:06;16.50;99.90
33139;DHT22;19501;50.948;5.316;2023-05-07T05:17:31;16.60;99.90
33139;DHT22;19501;50.948;5.316;2023-05-07T05:19:59;16.60;99.90
33139;DHT22;19501;50.948;5.316;2023-05-07T05:22:25;16.70;99.90
33139;DHT22;19501;50.948;5.316;2023-05-07T05:24:51;16.80;99.90
33139;DHT22;19501;50.948;5.316;2023-05-07T05:27:16;16.90;99.90
33139;DHT22;19501;50.948;5.316;2023-05-07T05:29:42;16.90;99.90
33139;DHT22;19501;50.948;5.316;2023-05-07T05:32:08;16.80;99.90
33139;DHT22;19501;50.948;5.316;2023-05-07T05:34:33;16.90;99.90
33139;DHT22;19501;50.948;5.316;2023-05-07T05:36:59;17.00;99.90
33139;DHT22;19501;50.948;5.316;2023-05-07T05:39:25;17.00;99.90
33139;DHT22;19501;50.948;5.316;2023-05-07T05:41:50;17.10;99.90
33139;DHT22;19501;50.948;5.316;2023-05-07T05:44:16;17.20;99.90
33139;DHT22;19501;50.948;5.316;2023-05-07T05:46:42;17.30;99.90
33139;DHT22;19501;50.948;5.316;2023-05-07T05:49:07;17.40;99.90
33139;DHT22;19501;50.948;5.316;2023-05-07T05:51:33;17.50;99.90
33139;DHT22;19501;50.948;5.316;2023-05-07T05:53:59;17.30;99.90
33139;DHT22;19501;50.948;5.316;2023-05-07T05:56:25;17.40;99.90
33139;DHT22;19501;50.948;5.316;2023-05-07T05:58:51;17.50;99.90
33139;DHT22;19501;50.948;5.316;2023-05-07T06:01:17;17.60;99.90
33139;DHT22;19501;50.948;5.316;2023-05-07T06:03:44;17.60;99.90
33139;DHT22;19501;50.948;5.316;2023-05-07T06:06:09;17.60;99.90
33139;DHT22;19501;50.948;5.316;2023-05-07T06:08:35;17.60;99.90
33139;DHT22;19501;50.948;5.316;2023-05-07T06:11:01;17.70;99.90
33139;DHT22;19501;50.948;5.316;2023-05-07T06:13:27;17.80;99.90
33139;DHT22;19501;50.948;5.316;2023-05-07T06:15:52;18.00;99.90
33139;DHT22;19501;50.948;5.316;2023-05-07T06:18:18;18.10;99.90
33139;DHT22;19501;50.948;5.316;2023-05-07T06:20:44;18.20;99.90
33139;DHT22;19501;50.948;5.316;2023-05-07T06:23:09;18.30;99.90
33139;DHT22;19501;50.948;5.316;2023-05-07T06:25:35;18.40;99.90
33139;DHT22;19501;50.948;5.316;2023-05-07T06:28:01;18.40;99.90
33139;DHT22;19501;50.948;5.316;2023-05-07T06:30:26;18.50;99.90
33139;DHT22;19501;50.948;5.316;2023-05-07T06:32:52;18.60;99.90
33139;DHT22;19501;50.948;5.316;2023-05-07T06:35:18;18.70;99.90
33139;DHT22;19501;50.948;5.316;2023-05-07T06:37:44;18.80;99.90
33139;DHT22;19501;50.948;5.316;2023-05-07T06:40:10;18.90;99.90
33139;DHT22;19501;50.948;5.316;2023-05-07T06:42:36;19.00;99.90
33139;DHT22;19501;50.948;5.316;2023-05-07T06:45:03;19.00;99.90
33139;DHT22;19501;50.948;5.316;2023-05-07T06:47:29;19.10;99.90
33139;DHT22;19501;50.948;5.316;2023-05-07T06:49:55;19.10;99.90
33139;DHT22;19501;50.948;5.316;2023-05-07T06:52:20;19.20;99.90
33139;DHT22;19501;50.948;5.316;2023-05-07T06:54:48;19.20;99.90
33139;DHT22;19501;50.948;5.316;2023-05-07T06:57:14;19.20;99.90
33139;DHT22;19501;50.948;5.316;2023-05-07T06:59:39;19.30;99.90
33139;DHT22;19501;50.948;5.316;2023-05-07T07:02:06;19.40;99.90
33139;DHT22;19501;50.948;5.316;2023-05-07T07:04:31;19.30;99.90
33139;DHT22;19501;50.948;5.316;2023-05-07T07:06:57;19.50;99.90
33139;DHT22;19501;50.948;5.316;2023-05-07T07:09:24;19.40;99.90
33139;DHT22;19501;50.948;5.316;2023-05-07T07:11:50;19.50;99.90
33139;DHT22;19501;50.948;5.316;2023-05-07T07:14:16;19.80;99.90
33139;DHT22;19501;50.948;5.316;2023-05-07T07:16:41;19.90;99.90
33139;DHT22;19501;50.948;5.316;2023-05-07T07:19:07;19.60;99.90
33139;DHT22;19501;50.948;5.316;2023-05-07T07:21:33;19.40;99.90
33139;DHT22;19501;50.948;5.316;2023-05-07T07:23:58;19.40;99.90
33139;DHT22;19501;50.948;5.316;2023-05-07T07:26:24;19.40;99.90
33139;DHT22;19501;50.948;5.316;2023-05-07T07:28:50;19.60;99.90
33139;DHT22;19501;50.948;5.316;2023-05-07T07:31:15;19.70;99.90
33139;DHT22;19501;50.948;5.316;2023-05-07T07:33:41;20.00;99.90
33139;DHT22;19501;50.948;5.316;2023-05-07T07:36:07;20.20;99.90
33139;DHT22;19501;50.948;5.316;2023-05-07T07:38:33;20.30;99.90
33139;DHT22;19501;50.948;5.316;2023-05-07T07:40:59;20.30;99.90
33139;DHT22;19501;50.948;5.316;2023-05-07T07:43:25;20.10;99.90
33139;DHT22;19501;50.948;5.316;2023-05-07T07:45:53;20.00;99.90
33139;DHT22;19501;50.948;5.316;2023-05-07T07:48:19;20.30;99.90
33139;DHT22;19501;50.948;5.316;2023-05-07T07:50:45;20.60;99.90
33139;DHT22;19501;50.948;5.316;2023-05-07T07:53:13;20.80;99.90
33139;DHT22;19501;50.948;5.316;2023-05-07T07:55:39;20.90;99.90
33139;DHT22;19501;50.948;5.316;2023-05-07T07:58:05;21.00;99.90
33139;DHT22;19501;50.948;5.316;2023-05-07T08:00:31;21.10;99.90
33139;DHT22;19501;50.948;5.316;2023-05-07T08:02:56;21.30;99.90
33139;DHT22;19501;50.948;5.316;2023-05-07T08:05:22;20.80;99.90
33139;DHT22;19501;50.948;5.316;2023-05-07T08:07:48;20.90;99.90
33139;DHT22;19501;50.948;5.316;2023-05-07T08:10:18;21.10;99.90
33139;DHT22;19501;50.948;5.316;2023-05-07T08:12:51;21.20;99.90
33139;DHT22;19501;50.948;5.316;2023-05-07T08:15:17;21.30;99.90
33139;DHT22;19501;50.948;5.316;2023-05-07T08:17:43;21.20;99.90
33139;DHT22;19501;50.948;5.316;2023-05-07T08:20:11;20.80;99.90
33139;DHT22;19501;50.948;5.316;2023-05-07T08:22:37;20.80;99.90
33139;DHT22;19501;50.948;5.316;2023-05-07T08:25:03;20.70;99.90
33139;DHT22;19501;50.948;5.316;2023-05-07T08:27:29;20.80;99.90
33139;DHT22;19501;50.948;5.316;2023-05-07T08:29:55;21.00;99.90
33139;DHT22;19501;50.948;5.316;2023-05-07T08:32:21;20.90;99.90
33139;DHT22;19501;50.948;5.316;2023-05-07T08:34:47;21.10;99.90
33139;DHT22;19501;50.948;5.316;2023-05-07T08:37:13;21.10;99.90
33139;DHT22;19501;50.948;5.316;2023-05-07T08:39:39;20.90;99.90
33139;DHT22;19501;50.948;5.316;2023-05-07T08:42:04;20.40;99.90
33139;DHT22;19501;50.948;5.316;2023-05-07T08:44:33;20.40;99.90
33139;DHT22;19501;50.948;5.316;2023-05-07T08:47:01;20.50;99.90
33139;DHT22;19501;50.948;5.316;2023-05-07T08:49:28;20.60;99.90
33139;DHT22;19501;50.948;5.316;2023-05-07T08:51:53;20.80;99.90
33139;DHT22;19501;50.948;5.316;2023-05-07T08:54:22;20.10;99.90
33139;DHT22;19501;50.948;5.316;2023-05-07T08:56:48;20.10;99.90
33139;DHT22;19501;50.948;5.316;2023-05-07T08:59:13;20.50;99.90
33139;DHT22;19501;50.948;5.316;2023-05-07T09:01:39;21.10;99.90
33139;DHT22;19501;50.948;5.316;2023-05-07T09:04:05;21.50;99.90
33139;DHT22;19501;50.948;5.316;2023-05-07T09:06:33;21.50;99.90
33139;DHT22;19501;50.948;5.316;2023-05-07T09:08:58;21.30;99.90
33139;DHT22;19501;50.948;5.316;2023-05-07T09:11:27;21.50;99.90
33139;DHT22;19501;50.948;5.316;2023-05-07T09:13:56;21.20;99.90
33139;DHT22;19501;50.948;5.316;2023-05-07T09:16:24;21.30;99.90
33139;DHT22;19501;50.948;5.316;2023-05-07T09:18:54;21.40;99.90
33139;DHT22;19501;50.948;5.316;2023-05-07T09:21:21;21.50;99.90
33139;DHT22;19501;50.948;5.316;2023-05-07T09:23:53;21.60;99.90
33139;DHT22;19501;50.948;5.316;2023-05-07T09:26:22;21.50;99.90
33139;DHT22;19501;50.948;5.316;2023-05-07T09:28:47;21.60;99.90
33139;DHT22;19501;50.948;5.316;2023-05-07T09:31:13;22.10;99.90
33139;DHT22;19501;50.948;5.316;2023-05-07T09:33:39;22.40;99.90
33139;DHT22;19501;50.948;5.316;2023-05-07T09:36:09;22.50;99.90
33139;DHT22;19501;50.948;5.316;2023-05-07T09:38:36;22.40;99.90
33139;DHT22;19501;50.948;5.316;2023-05-07T09:41:12;22.60;99.90
33139;DHT22;19501;50.948;5.316;2023-05-07T09:43:39;22.40;99.90
33139;DHT22;19501;50.948;5.316;2023-05-07T09:46:12;22.30;99.90
33139;DHT22;19501;50.948;5.316;2023-05-07T09:48:39;22.20;99.90
33139;DHT22;19501;50.948;5.316;2023-05-07T09:54:16;22.60;99.90
33139;DHT22;19501;50.948;5.316;2023-05-07T09:56:45;22.70;99.90
33139;DHT22;19501;50.948;5.316;2023-05-07T09:59:13;22.30;99.90
33139;DHT22;19501;50.948;5.316;2023-05-07T10:01:42;22.00;99.90
33139;DHT22;19501;50.948;5.316;2023-05-07T10:04:09;21.90;99.90
33139;DHT22;19501;50.948;5.316;2023-05-07T10:06:35;21.50;99.90
33139;DHT22;19501;50.948;5.316;2023-05-07T10:09:02;21.80;99.90
33139;DHT22;19501;50.948;5.316;2023-05-07T10:11:28;21.90;99.90
33139;DHT22;19501;50.948;5.316;2023-05-07T10:13:54;22.10;99.90
33139;DHT22;19501;50.948;5.316;2023-05-07T10:16:20;21.70;99.90
33139;DHT22;19501;50.948;5.316;2023-05-07T10:18:47;21.40;99.90
33139;DHT22;19501;50.948;5.316;2023-05-07T10:21:18;21.30;99.90
33139;DHT22;19501;50.948;5.316;2023-05-07T10:23:57;21.00;99.90
33139;DHT22;19501;50.948;5.316;2023-05-07T10:26:24;20.90;99.90
33139;DHT22;19501;50.948;5.316;2023-05-07T10:28:55;20.70;99.90
33139;DHT22;19501;50.948;5.316;2023-05-07T10:33:56;20.40;99.90
33139;DHT22;19501;50.948;5.316;2023-05-07T10:36:22;20.40;99.90
33139;DHT22;19501;50.948;5.316;2023-05-07T10:38:49;20.50;99.90
33139;DHT22;19501;50.948;5.316;2023-05-07T10:41:15;20.50;99.90
33139;DHT22;19501;50.948;5.316;2023-05-07T10:43:43;20.60;99.90
33139;DHT22;19501;50.948;5.316;2023-05-07T10:46:10;20.60;99.90
33139;DHT22;19501;50.948;5.316;2023-05-07T10:49:06;20.50;99.90
33139;DHT22;19501;50.948;5.316;2023-05-07T10:51:35;20.60;99.90
33139;DHT22;19501;50.948;5.316;2023-05-07T10:56:37;20.40;99.90
33139;DHT22;19501;50.948;5.316;2023-05-07T11:01:57;20.10;99.90
33139;DHT22;19501;50.948;5.316;2023-05-07T11:04:23;20.10;99.90
33139;DHT22;19501;50.948;5.316;2023-05-07T11:12:17;20.10;99.90
33139;DHT22;19501;50.948;5.316;2023-05-07T11:14:44;20.20;99.90
33139;DHT22;19501;50.948;5.316;2023-05-07T11:17:11;20.10;99.90
33139;DHT22;19501;50.948;5.316;2023-05-07T11:19:54;20.00;99.90
33139;DHT22;19501;50.948;5.316;2023-05-07T11:25:02;19.70;99.90
33139;DHT22;19501;50.948;5.316;2023-05-07T11:27:29;19.60;99.90
33139;DHT22;19501;50.948;5.316;2023-05-07T11:29:55;19.40;99.90
33139;DHT22;19501;50.948;5.316;2023-05-07T11:32:28;19.20;99.90
33139;DHT22;19501;50.948;5.316;2023-05-07T11:34:55;19.00;99.90
33139;DHT22;19501;50.948;5.316;2023-05-07T11:37:22;18.80;99.90
33139;DHT22;19501;50.948;5.316;2023-05-07T11:39:47;18.70;99.90
33139;DHT22;19501;50.948;5.316;2023-05-07T11:44:52;18.70;99.90
33139;DHT22;19501;50.948;5.316;2023-05-07T11:47:18;18.70;99.90
33139;DHT22;19501;50.948;5.316;2023-05-07T11:49:47;18.80;99.90
33139;DHT22;19501;50.948;5.316;2023-05-07T11:52:14;18.80;99.90
33139;DHT22;19501;50.948;5.316;2023-05-07T11:54:40;18.80;99.90
33139;DHT22;19501;50.948;5.316;2023-05-07T11:57:05;18.80;99.90
33139;DHT22;19501;50.948;5.316;2023-05-07T11:59:39;18.90;99.90
33139;DHT22;19501;50.948;5.316;2023-05-07T12:02:14;18.80;99.90
33139;DHT22;19501;50.948;5.316;2023-05-07T12:04:40;19.00;99.90
33139;DHT22;19501;50.948;5.316;2023-05-07T12:07:11;19.20;99.90
33139;DHT22;19501;50.948;5.316;2023-05-07T12:09:39;19.20;99.90
33139;DHT22;19501;50.948;5.316;2023-05-07T12:12:05;18.90;99.90
33139;DHT22;19501;50.948;5.316;2023-05-07T12:14:31;18.70;99.90
33139;DHT22;19501;50.948;5.316;2023-05-07T12:16:59;18.60;99.90
33139;DHT22;19501;50.948;5.316;2023-05-07T12:19:31;18.60;99.90
33139;DHT22;19501;50.948;5.316;2023-05-07T12:21:57;18.40;99.90
33139;DHT22;19501;50.948;5.316;2023-05-07T12:24:23;18.30;99.90
33139;DHT22;19501;50.948;5.316;2023-05-07T12:26:49;18.40;99.90
33139;DHT22;19501;50.948;5.316;2023-05-07T12:29:17;18.30;99.90
33139;DHT22;19501;50.948;5.316;2023-05-07T12:31:46;18.50;99.90
33139;DHT22;19501;50.948;5.316;2023-05-07T12:34:12;18.70;99.90
33139;DHT22;19501;50.948;5.316;2023-05-07T12:36:38;18.80;99.90
33139;DHT22;19501;50.948;5.316;2023-05-07T12:39:07;19.00;99.90
33139;DHT22;19501;50.948;5.316;2023-05-07T12:41:56;19.20;99.90
33139;DHT22;19501;50.948;5.316;2023-05-07T12:44:22;19.30;99.90
33139;DHT22;19501;50.948;5.316;2023-05-07T12:46:49;19.20;99.90
33139;DHT22;19501;50.948;5.316;2023-05-07T12:49:15;19.30;99.90
33139;DHT22;19501;50.948;5.316;2023-05-07T12:51:40;19.20;99.90
33139;DHT22;19501;50.948;5.316;2023-05-07T12:54:06;19.30;99.90
33139;DHT22;19501;50.948;5.316;2023-05-07T12:56:35;19.50;99.90
33139;DHT22;19501;50.948;5.316;2023-05-07T12:59:00;19.60;99.90
33139;DHT22;19501;50.948;5.316;2023-05-07T13:01:29;19.40;99.90
33139;DHT22;19501;50.948;5.316;2023-05-07T13:04:01;19.10;99.90
33139;DHT22;19501;50.948;5.316;2023-05-07T13:06:28;19.20;99.90
33139;DHT22;19501;50.948;5.316;2023-05-07T13:08:53;19.30;99.90
33139;DHT22;19501;50.948;5.316;2023-05-07T13:11:19;19.20;99.90
33139;DHT22;19501;50.948;5.316;2023-05-07T13:13:48;19.10;99.90
33139;DHT22;19501;50.948;5.316;2023-05-07T13:16:14;19.20;99.90
33139;DHT22;19501;50.948;5.316;2023-05-07T13:18:40;19.40;99.90
33139;DHT22;19501;50.948;5.316;2023-05-07T13:21:06;19.30;99.90
33139;DHT22;19501;50.948;5.316;2023-05-07T13:23:31;19.50;99.90
33139;DHT22;19501;50.948;5.316;2023-05-07T13:25:57;19.50;99.90
33139;DHT22;19501;50.948;5.316;2023-05-07T13:28:24;19.50;99.90
33139;DHT22;19501;50.948;5.316;2023-05-07T13:30:50;19.90;99.90
33139;DHT22;19501;50.948;5.316;2023-05-07T13:33:17;20.30;99.90
33139;DHT22;19501;50.948;5.316;2023-05-07T13:35:43;20.40;99.90
33139;DHT22;19501;50.948;5.316;2023-05-07T13:38:09;20.40;99.90
33139;DHT22;19501;50.948;5.316;2023-05-07T13:40:35;20.50;99.90
33139;DHT22;19501;50.948;5.316;2023-05-07T13:43:01;20.50;99.90
33139;DHT22;19501;50.948;5.316;2023-05-07T13:45:29;20.60;99.90
33139;DHT22;19501;50.948;5.316;2023-05-07T13:47:56;20.80;99.90
33139;DHT22;19501;50.948;5.316;2023-05-07T13:50:22;20.70;99.90
33139;DHT22;19501;50.948;5.316;2023-05-07T13:52:47;20.90;99.90
33139;DHT22;19501;50.948;5.316;2023-05-07T13:55:19;20.60;99.90
33139;DHT22;19501;50.948;5.316;2023-05-07T13:57:46;20.70;99.90
33139;DHT22;19501;50.948;5.316;2023-05-07T14:00:13;20.40;99.90
33139;DHT22;19501;50.948;5.316;2023-05-07T14:02:39;20.60;99.90
33139;DHT22;19501;50.948;5.316;2023-05-07T14:05:08;20.50;99.90
33139;DHT22;19501;50.948;5.316;2023-05-07T14:07:35;20.70;99.90
33139;DHT22;19501;50.948;5.316;2023-05-07T14:10:01;20.60;99.90
33139;DHT22;19501;50.948;5.316;2023-05-07T14:12:26;20.80;99.90
33139;DHT22;19501;50.948;5.316;2023-05-07T14:14:52;21.10;99.90
33139;DHT22;19501;50.948;5.316;2023-05-07T14:17:20;21.10;99.90
33139;DHT22;19501;50.948;5.316;2023-05-07T14:19:48;21.00;99.90
33139;DHT22;19501;50.948;5.316;2023-05-07T14:22:14;21.00;99.90
33139;DHT22;19501;50.948;5.316;2023-05-07T14:24:40;21.20;99.90
33139;DHT22;19501;50.948;5.316;2023-05-07T14:27:06;20.60;99.90
33139;DHT22;19501;50.948;5.316;2023-05-07T14:29:35;20.50;99.90
33139;DHT22;19501;50.948;5.316;2023-05-07T14:32:02;20.40;99.90
33139;DHT22;19501;50.948;5.316;2023-05-07T14:34:28;20.50;99.90
33139;DHT22;19501;50.948;5.316;2023-05-07T14:36:54;20.70;99.90
33139;DHT22;19501;50.948;5.316;2023-05-07T14:39:21;20.60;99.90
33139;DHT22;19501;50.948;5.316;2023-05-07T14:41:46;20.60;99.90
33139;DHT22;19501;50.948;5.316;2023-05-07T14:44:12;20.50;99.90
33139;DHT22;19501;50.948;5.316;2023-05-07T14:46:38;20.80;99.90
33139;DHT22;19501;50.948;5.316;2023-05-07T14:49:03;20.70;99.90
33139;DHT22;19501;50.948;5.316;2023-05-07T14:51:29;20.70;99.90
33139;DHT22;19501;50.948;5.316;2023-05-07T14:53:55;20.40;99.90
33139;DHT22;19501;50.948;5.316;2023-05-07T14:56:21;20.50;99.90
33139;DHT22;19501;50.948;5.316;2023-05-07T14:58:47;20.70;99.90
33139;DHT22;19501;50.948;5.316;2023-05-07T15:01:14;20.40;99.90
33139;DHT22;19501;50.948;5.316;2023-05-07T15:03:40;20.10;99.90
33139;DHT22;19501;50.948;5.316;2023-05-07T15:06:05;20.10;99.90
33139;DHT22;19501;50.948;5.316;2023-05-07T15:08:31;20.20;99.90
33139;DHT22;19501;50.948;5.316;2023-05-07T15:10:57;20.10;99.90
33139;DHT22;19501;50.948;5.316;2023-05-07T15:13:22;20.10;99.90
33139;DHT22;19501;50.948;5.316;2023-05-07T15:15:48;20.10;99.90
33139;DHT22;19501;50.948;5.316;2023-05-07T15:18:16;19.70;99.90
33139;DHT22;19501;50.948;5.316;2023-05-07T15:20:42;19.60;99.90
33139;DHT22;19501;50.948;5.316;2023-05-07T15:23:08;19.70;99.90
33139;DHT22;19501;50.948;5.316;2023-05-07T15:25:40;19.70;99.90
33139;DHT22;19501;50.948;5.316;2023-05-07T15:28:06;19.90;99.90
33139;DHT22;19501;50.948;5.316;2023-05-07T15:30:32;20.00;99.90
33139;DHT22;19501;50.948;5.316;2023-05-07T15:32:58;20.20;99.90
33139;DHT22;19501;50.948;5.316;2023-05-07T15:35:24;20.40;99.90
33139;DHT22;19501;50.948;5.316;2023-05-07T15:37:52;20.50;99.90
33139;DHT22;19501;50.948;5.316;2023-05-07T15:40:19;20.40;99.90
33139;DHT22;19501;50.948;5.316;2023-05-07T15:42:45;20.70;99.90
33139;DHT22;19501;50.948;5.316;2023-05-07T15:45:11;20.70;99.90
33139;DHT22;19501;50.948;5.316;2023-05-07T15:47:37;21.00;99.90